x

Cape Edgecumbe - 25nm Ssw Of Cape Edgecumbe, Ak (46084) Wave Buoy

1:50pm - Wed 28th Jan 2015 All times are AKST. -9 hours from GMT.

  • Sig Wave height 14.8ft
  • Peak Period 8s
  • Average Period 7s
  • Wind
    31mph, 38mph gusts
  • Sea Temp 46°f
  • Air Temp 46°f
  • Sea Pressure 1008.9mb
  • Cape Edgecumbe - 25nm Ssw Of Cape Edgecumbe, Ak
  • Cape Edgecumbe - 25nm Ssw Of Cape Edgecumbe, Ak

More Historic Weather Station data

Upgrade to MSW Pro to gain access to the past 30 days of data for over 8000 Wavebouys and Weather Stations around the globe.

Join Pro

Comparision Forecast

View Surf forecast
   
Wed 01/28 1:50pm 15ft 8s 7s 31 38 mph 1008.9mb 46f 46f
12:50pm 13.5ft 9s 6s 43 56 mph 1008.5mb 46f 44f
11:50am 13ft 9s 6s 36 45 mph 1010.1mb 46f 44f
10:50am 13.5ft 8s 7s 38 47 mph 1011mb 46f 44f
9:50am 14ft 8s 6s 38 47 mph 1011.7mb 46f 44f
8:50am 13.5ft 8s 6s 36 47 mph 1012.1mb 46f 43f
7:50am 13ft 8s 6s 36 47 mph 1012.6mb 47f 43f
6:50am 12ft 7s 6s 36 45 mph 1013.1mb 47f 42f
5:50am 11.5ft 8s 6s 36 43 mph 1013.9mb 47f 42f
4:50am 11.5ft 7s 6s 36 45 mph 1014.4mb 47f 42f
3:50am 11ft 7s 5s 36 45 mph 1014.9mb 47f 42f
2:50am 9ft 6s 5s 36 45 mph 1015.3mb 47f 42f
1:50am 7ft 5s 4s 34 40 mph 1015.7mb 47f 42f
12:50am 6ft 5s 4s 31 36 mph 1016.5mb 47f 42f
Tue 01/27 11:50pm 5.5ft 5s 4s 29 34 mph 1017mb 47f 43f
10:50pm 5ft 4s 4s 27 31 mph 1017.1mb 47f 43f
9:50pm 4.5ft 4s 4s 25 29 mph 1017.3mb 47f 41f
8:50pm 4.5ft 9s 5s 22 27 mph 1017.2mb 46f 42f
7:50pm 4.5ft 10s 5s 18 25 mph 1017.4mb 46f 41f
6:50pm 4.5ft 10s 6s 16 20 mph 1017.3mb 47f 41f
5:50pm 5ft 12s 7s 13 18 mph 1017.1mb 47f 41f
4:50pm 5ft 10s 7s 13 16 mph 1016.8mb 47f 41f
3:50pm 5ft 10s 6s 9 11 mph 1016.5mb 47f 41f
2:50pm 5.5ft 10s 6s 7 9 mph 1016.4mb 47f 41f
1:50pm 5.5ft 8s 6s 9 11 mph 1016mb 47f 41f
12:50pm 5.5ft 7s 6s 11
mph
1015.5mb 47f 41f
11:50am 6ft 7s 6s 11 16 mph 1015mb 47f 41f
10:50am 6.5ft 8s 6s 11 16 mph 1014.3mb 47f 41f
9:50am 6ft 8s 6s 13 20 mph 1013.5mb 47f 41f
8:50am 7ft 8s 6s 16 20 mph 1012.5mb 47f 41f
7:50am 7ft 8s 6s 18 25 mph 1011.6mb 47f 41f
6:50am 7ft 8s 6s 20 22 mph 1010.6mb 47f 40f
5:50am 7.5ft 8s 6s 20 27 mph 1010.2mb 46f 40f
4:50am 8ft 8s 6s 20 27 mph 1009.7mb 46f 40f
3:50am 8ft 8s 6s 22 31 mph 1009.4mb 46f 40f
2:50am 8ft 8s 6s 25 29 mph 1009.2mb 46f 40f
1:50am 9ft 7s 6s 27 31 mph 1008.7mb 46f 40f
12:50am 9ft 9s 6s 29 34 mph 1008.4mb 46f 40f
Mon 01/26 11:50pm 9ft 8s 6s 27 34 mph 1008.5mb 47f 40f
10:50pm 8.5ft 9s 6s 25 31 mph 1008.5mb 47f 40f
9:50pm 8ft 9s 6s 25 31 mph 1008.8mb 47f 40f
8:50pm 8.5ft 10s 6s 25 29 mph 1009.1mb 47f 40f
7:50pm 8.5ft 9s 6s 22 29 mph 1009.2mb 47f 40f
6:50pm 9ft 10s 7s 25 31 mph 1009.1mb 47f 40f
5:50pm 9ft 10s 6s 22 27 mph 1009.5mb 47f 40f
4:50pm 9ft 10s 7s 22 29 mph 1009.9mb 47f 40f
3:50pm 9ft 9s 7s 20 25 mph 1010.7mb 47f 40f
2:50pm 10ft 10s 7s 18 25 mph 1011.5mb 47f 40f
1:50pm 10ft 10s 8s 16 20 mph 1011.8mb 47f 41f
12:50pm 10ft 10s 8s 13 18 mph 1013mb 47f 41f
11:50am 9ft 10s 8s 16 20 mph 1013.3mb 47f 41f
10:50am 10ft 11s 8s 11 16 mph 1013.7mb 47f 42f
9:50am 10ft 10s 8s 11 16 mph 1013.3mb 47f 41f
8:50am 10.5ft 11s 8s 16 20 mph 1013.3mb 47f 41f
7:50am 10ft 11s 8s 16 20 mph 1013.4mb 47f 41f
6:50am 10.5ft 11s 8s 11 16 mph 1013.4mb 47f 42f
5:50am 10ft 11s 8s 7 13 mph 1013.6mb 47f 42f
4:50am 12ft 11s 8s 7 9 mph 1014.1mb 47f 43f
3:50am 12ft 10s 8s 7 11 mph 1014.3mb 47f 42f
2:50am 11.5ft 10s 8s 7 9 mph 1014.2mb 47f 42f
1:50am 13ft 10s 8s 7 9 mph 1014.3mb 47f 42f
12:50am 12ft 10s 8s 11 16 mph 1014.2mb 47f 42f
Sun 01/25 11:50pm 13ft 10s 8s 9 13 mph 1014.2mb 47f 42f
10:50pm 11.5ft 11s 8s 9 11 mph 1013.7mb 47f 42f
9:50pm 11.5ft 10s 8s 7 11 mph 1013.4mb 47f 42f
8:50pm 10ft 11s 8s 11 16 mph 1013mb 47f 42f
7:50pm 10ft 11s 8s 16 18 mph 1012.4mb 47f 42f
6:50pm 11ft 11s 8s 9 13 mph 1012.1mb 47f 42f
5:50pm 11ft 12s 8s 11 13 mph 1011.6mb 47f 42f
4:50pm 11ft 11s 7s 16 20 mph 1010.8mb 47f 42f
3:50pm 13ft 11s 8s 13 18 mph 1010.4mb 47f 43f
2:50pm 12ft 11s 8s 13 18 mph 1009.7mb 47f 43f
1:50pm 13ft 11s 8s 16 22 mph 1009.3mb 47f 44f
12:50pm 13ft 11s 8s 13 18 mph 1009.1mb 47f 44f
11:50am 13ft 10s 8s 16 20 mph 1008.2mb 47f 45f
10:50am 13ft 11s 8s 18 22 mph 1007.4mb 47f 44f
9:50am 12.5ft 11s 7s 25 29 mph 1006.5mb 47f 45f
8:50am 15ft 11s 7s 22 29 mph 1006.2mb 47f 44f
7:50am 15.5ft 12s 8s 22 29 mph 1005.5mb 47f 45f
6:50am 14.5ft 12s 8s 22 29 mph 1004.5mb 47f 45f
5:50am 15.5ft 13s 8s 27 34 mph 1003.7mb 47f 46f
4:50am 15.5ft 13s 8s 25 31 mph 1003mb 47f 46f
3:50am 14ft 12s 8s 20 27 mph 1002.8mb 47f 46f
2:50am 14ft 13s 8s 22 27 mph 1002.2mb 47f 45f
1:50am 15ft 11s 8s 22 27 mph 1000.7mb 47f 46f
12:50am 13ft 10s 7s 27 31 mph 997.9mb 47f 46f
Sat 01/24 11:50pm 12.5ft 11s 7s 29 34 mph 995.4mb 47f 45f